Wednesday, July 30, 2014
03:04 UTC
  |  Log In   |  Register Free
Airport Search:

Pocono Mountains Municipal Airport
(KMPO)

Pocono Mountains Municipal Airport Diagram
No Airport Diagram Available

FAA data valid effective July 24, 2014 until September 18, 2014 (unless otherwise noted).

 
 
 
 
 
 
 
 
 
 
 
 
 
 

Current Aviation Weather for Pocono Mountains Municipal Airport (KMPO)

The most recent METAR observation for KMPO was updated at: 1753 UTC
METAR Summary (Translated METAR)
KMPO
281753Z AUTO 28008KT 10SM FEW028 SCT043 BKN100 19/17 A2961 RMK AO2 PK WND 27026/1737 LTG DSNT N RAB38E53 SLP019 P0003 60003 T01890167 10222 20178 50002
KAVP
(19.6 nm NW from KMPO)
281754Z 24014G21KT 10SM FEW031 26/16 A2957 RMK AO2 SLP003 60000 T02560161 10261 20194 58003
TAF Summary (Translated TAF)
KAVP
(19.6 nm NW from KMPO)
291725Z 2918/3018 32008KT P6SM BKN060 FM300000 VRB03KT P6SM SKC FM301400 23008KT P6SM BKN050
KABE
(29.3 nm SW from KMPO)
291736Z 2918/3018 30009KT P6SM SCT040 BKN060 FM300200 00000KT P6SM SKC FM301400 26005KT P6SM SCT050
  Airport Weather Conditions for KMPO

 Current Weather at MPO
57° F
Overcast
Northwest winds at 4.6 mph
MPO NOAA Radar

Pressure: 30.02 in
Humidity: 74%
Wind: Northwest at 4.6 MPH (4 KT)
Dew Point: 48.9°F
Visibility: 10.00 mi


Airport Weather Forecast for KMPO

Translated METAR and TAF for KMPO
Translated METAR for KMPO (0257 UTC 30 July 2014)
found at http://aviationweather.gov/adds/metars/
 
METAR text: KMPO 300253Z AUTO 00000KT 10SM SCT065 12/10 A3002 RMK AO2 SLP163 T01220100 51006
Conditions at: KMPO (MT. POCONO , PA, US) observed 0253 UTC 30 July 2014
Temperature: 12.2°C (54°F)
Dewpoint: 10.0°C (50°F) [RH = 86%]
Pressure (altimeter): 30.02 inches Hg (1016.7 mb)
[Sea-level pressure: 1016.3 mb]
Winds: calm
Visibility: 10 or more miles (16+ km)
Ceiling: at least 12,000 feet AGL
Clouds: scattered clouds at 6500 feet AGL
Weather: automated observation with no human augmentation;
there may or may not be significant weather present at this time
Translated TAF for KMPO

There is no translated TAF available for this airport

Find All Airport Services Find A Hotel Find A Rental Car Find A Golf Course Find A Restaurant $100 Hamburger



FBO's on the Field
FBO Company Facility Photos Services Transportation Aviation Fuel Prices: Prices include tax
Catering Weather Repair Courtesy Rental Type 100LL JetA JetA+ MOGAS 8087
 
Pocono Mountains Municipal Airport Authority

This FBO has not yet been rated
FS:Phillips66
Last Updated: Jul-17
Login to update fuel prices
SS:
Contact Pocono Mountains Municipal Airport AuthorityMore FBO Information
 
Add another FBO Facility Photos Catering Weather Repair Courtesy Rental Type 100LL JetA JetA+ MOGAS 8087
Services Transportation Aviation Fuel Prices: Prices include tax


GlobalAir.com Airport Resource Center model-print
model-print
model-print
model-print